Latest Coastal Weather Observations for Port Lincoln Airport

IDS60701

Issued at 5:51 am CST Friday 26 August 2016 (issued every 10 minutes, with the page automatically refreshed every 10 minutes)

About coastal observations | Map of coastal stations | Coastal observations for SA | Marine services | Other Formats
Station Details ID: 018192 Name: PORT LINCOLN AWS Lat: -34.60 Lon: 135.88 Height: 8.5 m
Data from the previous 72 hours. | See also: Recent months at Port Lincoln Airport
Date/Time
CST
Temp
°C
Wind Pressure Rain since
9am
mm
Weather Cloud Vis
km
Sea
Height
m
Swell
Dir  Spd
kts
Gust
kts
hPa Trend Height
m
Period
s
Dir
26/05:30am 4.2 NNW 7 7 1024.6 - 0.0 - Partly cloudy 10 - - - -
26/05:00am 4.2 NW 7 9 1024.3 - 0.0 - - 10 - - - -
26/04:30am 4.2 NW 7 9 1024.2 - 0.0 - - 10 - - - -
26/04:00am 3.8 NW 7 8 1024.0 - 0.0 - - 10 - - - -
26/03:30am 4.0 NNW 5 6 1023.9 - 0.0 - - 10 - - - -
26/03:00am 4.8 NW 7 8 1024.1 - 0.0 - - 10 - - - -
26/02:30am 4.9 NW 7 7 1024.3 - 0.0 - - 10 - - - -
26/02:00am 4.7 NNW 5 6 1024.5 - 0.0 - - 10 - - - -
26/01:30am 5.0 NW 6 7 1024.6 - 0.0 - Partly cloudy 10 - - - -
26/01:00am 5.7 NW 7 7 1024.5 - 0.0 - - 10 - - - -
26/12:30am 5.7 NW 7 8 1024.6 - 0.0 - - 10 - - - -
26/12:00am 6.1 NW 7 8 1024.5 - 0.0 - - 10 - - - -
 
Date/Time
CST
Temp
°C
Wind Pressure Rain since
9am
mm
Weather Cloud Vis
km
Sea
Height
m
Swell
Dir  Spd
kts
Gust
kts
hPa Trend Height
m
Period
s
Dir
25/11:30pm 6.1 WNW 5 6 1024.5 - 0.0 - Partly cloudy 10 - - - -
25/11:00pm 7.1 NW 6 6 1024.4 - 0.0 - - 10 - - - -
25/10:30pm 7.4 W 5 6 1024.3 - 0.0 - Partly cloudy 10 - - - -
25/10:00pm 8.9 SSW 3 5 1024.3 - 0.0 - Partly cloudy 10 - - - -
25/09:30pm 9.3 SW 5 6 1024.2 - 0.0 - Partly cloudy 10 - - - -
25/09:00pm 9.1 SW 7 9 1024.2 - 0.0 - - 10 - - - -
25/08:30pm 8.6 SW 7 9 1023.9 - 0.0 - - 10 - - - -
25/08:00pm 7.2 WSW 5 7 1023.7 - 0.0 - - 10 - - - -
25/07:30pm 8.4 SW 5 6 1023.5 - 0.0 - - 10 - - - -
25/07:00pm 9.2 SSW 6 7 1023.3 - 0.0 - - 10 - - - -
25/06:30pm 7.9 WSW 4 6 1023.0 - 0.0 - Partly cloudy 10 - - - -
25/06:00pm 11.2 CALM 0 3 1022.7 - 0.0 - - 10 - - - -
25/05:30pm 11.9 SSE 5 6 1022.4 - 0.0 - - 10 - - - -
25/05:00pm 12.9 SE 3 4 1022.2 - 0.0 - - 10 - - - -
25/04:30pm 12.7 SE 5 7 1022.1 - 0.0 - - 10 - - - -
25/04:00pm 13.8 SE 5 8 1021.7 - 0.0 - - 10 - - - -
25/03:30pm 13.8 SE 5 7 1021.5 - 0.0 - Partly cloudy 10 - - - -
25/03:00pm 13.9 E 7 9 1021.5 - 0.0 - Cloudy 10 - - - -
25/02:30pm 14.1 ENE 5 9 1021.2 - 0.0 - Partly cloudy 10 - - - -
25/02:00pm 13.4 E 7 9 1021.3 - 0.0 - Partly cloudy 10 - - - -
25/01:30pm 13.3 ENE 7 10 1021.2 - 0.0 - Partly cloudy 10 - - - -
25/01:00pm 13.9 ENE 7 9 1021.4 - 0.0 - Partly cloudy 10 - - - -
25/12:30pm 13.4 ENE 7 9 1021.7 - 0.0 - Partly cloudy 10 - - - -
25/12:00pm 14.0 ENE 8 12 1021.7 - 0.0 - Mostly clear 10 - - - -
25/11:30am 14.0 ENE 9 13 1021.8 - 0.0 - Partly cloudy 10 - - - -
25/11:00am 14.0 ENE 9 13 1021.9 - 0.0 - Partly cloudy 10 - - - -
25/10:30am 14.2 E 9 15 1021.7 - 0.0 - Partly cloudy 10 - - - -
25/10:00am 13.9 SE 9 13 1021.7 - 0.0 - Partly cloudy 10 - - - -
25/09:30am 13.6 E 10 13 1021.4 - 0.0 - Partly cloudy 10 - - - -
25/09:00am 13.0 E 10 13 1021.0 - 0.2 - Mostly clear 10 - - - -
25/08:30am 11.8 ESE 9 11 1020.6 - 0.2 - Partly cloudy 10 - - - -
25/08:00am 11.4 ESE 7 9 1020.4 - 0.2 - Partly cloudy 10 - - - -
25/07:30am 8.2 ESE 5 8 1019.8 - 0.2 - Partly cloudy 10 - - - -
25/07:00am 7.5 ESE 6 7 1019.4 - 0.2 - - 10 - - - -
25/06:30am 7.9 ESE 7 8 1019.1 - 0.2 - - 10 - - - -
25/06:00am 8.2 ESE 6 7 1018.9 - 0.2 - - 10 - - - -
25/05:30am 9.1 ESE 6 8 1018.5 - 0.2 - Partly cloudy 10 - - - -
25/05:00am 9.8 ESE 7 9 1018.2 - 0.2 - Cloudy 10 - - - -
25/04:30am 9.2 ESE 8 9 1017.8 - 0.2 - Partly cloudy 10 - - - -
25/04:00am 8.5 ESE 7 8 1017.6 - 0.2 - - 10 - - - -
25/03:30am 8.8 ESE 8 9 1017.6 - 0.2 - Partly cloudy 10 - - - -
25/03:00am 9.7 ESE 7 8 1017.6 - 0.2 - Partly cloudy 10 - - - -
25/02:30am 10.6 E 8 10 1017.5 - 0.2 - Partly cloudy 10 - - - -
25/02:00am 11.4 E 9 11 1017.5 - 0.2 - Partly cloudy 10 - - - -
25/01:30am 11.6 E 10 13 1017.6 - 0.2 - Partly cloudy 10 - - - -
25/01:00am 11.6 ESE 10 13 1017.5 - 0.2 - Cloudy 10 - - - -
25/12:30am 10.6 CALM 0 3 1017.5 - 0.2 - Partly cloudy 10 - - - -
25/12:00am 10.5 SSW 3 4 1017.5 - 0.2 - Cloudy 10 - - - -
 
Date/Time
CST
Temp
°C
Wind Pressure Rain since
9am
mm
Weather Cloud Vis
km
Sea
Height
m
Swell
Dir  Spd
kts
Gust
kts
hPa Trend Height
m
Period
s
Dir
24/11:30pm 10.2 S 7 7 1017.4 - 0.2 - Cloudy 10 - - - -
24/11:00pm 9.9 SSW 4 5 1017.4 - 0.2 - Cloudy 10 - - - -
24/10:30pm 9.4 WNW 4 5 1017.5 - 0.2 - Cloudy 10 - - - -
24/10:00pm 9.3 NW 6 7 1017.4 - 0.2 - Cloudy 10 - - - -
24/09:30pm 9.1 NW 6 7 1017.5 - 0.2 - Partly cloudy 10 - - - -
24/09:00pm 9.2 WNW 5 6 1017.4 - 0.2 - Mostly cloudy 10 - - - -
24/08:30pm 9.4 WNW 6 7 1017.2 - 0.2 - Partly cloudy 10 - - - -
24/08:00pm 10.0 NW 5 6 1017.1 - 0.2 - Partly cloudy 10 - - - -
24/07:30pm 10.5 NW 7 8 1017.2 - 0.2 - Partly cloudy 10 - - - -
24/07:00pm 10.8 NNW 5 8 1016.7 - 0.2 - Partly cloudy 10 - - - -
24/06:30pm 11.5 CALM 0 0 1016.2 - 0.2 - Cloudy 10 - - - -
24/06:00pm 11.7 SSW 4 5 1015.9 - 0.2 - Cloudy 10 - - - -
24/05:30pm 12.1 NW 4 5 1015.7 - 0.2 - Partly cloudy 10 - - - -
24/05:00pm 12.3 WSW 2 4 1015.3 - 0.2 - Partly cloudy 10 - - - -
24/04:30pm 12.3 SSW 5 8 1015.0 - 0.2 - Partly cloudy 10 - - - -
24/04:00pm 13.3 SE 7 9 1014.8 - 0.0 - Partly cloudy 10 - - - -
24/03:30pm 13.6 E 8 10 1014.8 - 0.0 - Partly cloudy 10 - - - -
24/03:00pm 13.5 ENE 8 11 1014.7 - 0.0 - Partly cloudy 10 - - - -
24/02:30pm 14.7 ENE 9 11 1014.6 - 0.0 - Partly cloudy 10 - - - -
24/02:00pm 14.5 E 9 11 1014.7 - 0.0 - - 10 - - - -
24/01:30pm 14.7 E 9 11 1015.0 - 0.0 - - 10 - - - -
24/01:00pm 14.8 E 8 11 1015.4 - 0.0 - - 10 - - - -
24/12:30pm 14.6 E 7 9 1015.7 - 0.0 - - 10 - - - -
24/12:00pm 14.3 E 7 10 1016.0 - 0.0 - - 10 - - - -
24/11:30am 14.3 ENE 7 9 1016.2 - 0.0 - - 10 - - - -
24/11:00am 14.3 ENE 4 7 1016.3 - 0.0 - Partly cloudy 10 - - - -
24/10:30am 14.3 ENE 6 7 1016.5 - 0.0 - Partly cloudy 10 - - - -
24/10:00am 13.1 NNE 4 6 1016.4 - 0.0 - - 10 - - - -
24/09:30am 12.1 NNW 3 5 1016.5 - 0.0 - Partly cloudy 10 - - - -
24/09:00am 10.3 NW 5 7 1016.4 - 0.0 - Partly cloudy 10 - - - -
24/08:30am 8.3 NNW 6 7 1016.2 - 0.0 - Partly cloudy 10 - - - -
24/08:00am 6.2 NNW 5 6 1016.2 - 0.0 - Partly cloudy 10 - - - -
24/07:30am 4.2 NNW 5 6 1016.1 - 0.0 - - 10 - - - -
24/07:00am 3.7 NW 7 9 1015.8 - 0.0 - - 10 - - - -
24/06:30am 3.3 NW 6 7 1015.6 - 0.0 - - 10 - - - -
24/06:00am 3.6 NW 6 8 1015.5 - 0.0 - - 10 - - - -
24/05:30am 3.6 NNW 6 7 1015.4 - 0.0 - - 10 - - - -
24/05:00am 4.3 NW 8 9 1015.4 - 0.0 - - 10 - - - -
24/04:30am 4.3 NNW 5 6 1015.5 - 0.0 - - 10 - - - -
24/04:00am 5.1 NW 5 6 1015.7 - 0.0 - Partly cloudy 10 - - - -
24/03:30am 5.3 NW 6 7 1015.7 - 0.0 - Partly cloudy 10 - - - -
24/03:00am 5.5 NW 8 9 1015.8 - 0.0 - - 10 - - - -
24/02:30am 5.0 NW 6 7 1016.0 - 0.0 - - 10 - - - -
24/02:00am 5.9 WNW 7 8 1016.2 - 0.0 - - 10 - - - -
24/01:30am 5.0 NW 6 7 1016.2 - 0.0 - - 10 - - - -
24/01:00am 5.4 NW 6 7 1016.2 - 0.0 - - 10 - - - -
24/12:30am 5.8 NW 6 7 1016.4 - 0.0 - Partly cloudy 10 - - - -
24/12:00am 6.4 NW 5 6 1016.6 - 0.0 - Partly cloudy 10 - - - -
 
Date/Time
CST
Temp
°C
Wind Pressure Rain since
9am
mm
Weather Cloud Vis
km
Sea
Height
m
Swell
Dir  Spd
kts
Gust
kts
hPa Trend Height
m
Period
s
Dir
23/11:30pm 6.4 NW 4 5 1016.7 - 0.0 - Partly cloudy 10 - - - -
23/11:00pm 6.4 NW 6 7 1016.8 - 0.0 - Partly cloudy 10 - - - -
23/10:30pm 6.6 NW 6 7 1016.9 - 0.0 - Partly cloudy 10 - - - -
23/10:00pm 7.1 WNW 4 5 1017.1 - 0.0 - Partly cloudy 10 - - - -
23/09:30pm 6.6 W 4 6 1017.0 - 0.0 - Partly cloudy 10 - - - -
23/09:00pm 6.9 W 4 5 1017.0 - 0.0 - Mostly clear 10 - - - -
23/08:30pm 7.3 W 4 4 1017.0 - 0.0 - Cloudy 10 - - - -
23/08:00pm 6.8 CALM 0 4 1016.8 - 0.0 - Partly cloudy 10 - - - -
23/07:30pm 7.2 CALM 0 0 1016.5 - 0.0 - - 10 - - - -
23/07:00pm 8.1 CALM 0 0 1016.4 - 0.0 - - 10 - - - -
23/06:30pm 10.4 E 3 5 1016.2 - 0.0 - - 10 - - - -
23/06:00pm 11.2 ESE 4 6 1015.9 - 0.0 - - 10 - - - -
23/05:30pm 12.1 ESE 4 5 1015.7 - 0.0 - - 10 - - - -
23/05:00pm 12.4 ESE 7 8 1015.5 - 0.0 - - 10 - - - -
23/04:30pm 13.5 SE 7 9 1015.4 - 0.0 - - 10 - - - -
23/04:00pm 14.4 SE 7 10 1015.3 - 0.0 - - 10 - - - -
23/03:30pm 14.6 ENE 7 10 1015.3 - 0.0 - - 10 - - - -
23/03:00pm 14.5 E 9 11 1015.2 - 0.0 - - 10 - - - -
23/02:30pm 14.5 ENE 9 11 1015.5 - 0.0 - - 10 - - - -
23/02:00pm 14.9 ENE 8 10 1015.7 - 0.0 - - 10 - - - -
23/01:30pm 14.6 E 7 9 1015.8 - 0.0 - - 10 - - - -
23/01:00pm 14.7 E 7 10 1016.1 - 0.0 - - 10 - - - -
23/12:30pm 14.8 E 7 9 1016.5 - 0.0 - - 10 - - - -
23/12:00pm 14.8 ENE 7 10 1016.7 - 0.0 - - 10 - - - -
23/11:30am 14.2 ENE 8 10 1017.0 - 0.0 - - 10 - - - -
23/11:00am 14.2 ENE 7 9 1017.1 - 0.0 - - 10 - - - -
23/10:30am 14.0 ENE 6 8 1017.3 - 0.0 - - 10 - - - -
23/10:00am 13.4 ENE 3 6 1017.3 - 0.0 - - 10 - - - -
23/09:30am 12.1 NNW 2 4 1017.4 - 0.0 - - 10 - - - -
23/09:00am 9.9 NNW 4 5 1017.6 - 0.2 - - 10 - - - -
23/08:30am 7.4 NNW 4 6 1017.5 - 0.2 - - 10 - - - -
23/08:00am 6.3 NW 5 6 1017.0 - 0.2 - - 10 - - - -
23/07:30am 4.9 NW 6 7 1016.7 - 0.2 - - 10 - - - -
23/07:00am 3.8 NW 5 6 1016.5 - 0.2 - - 10 - - - -
23/06:30am 4.4 NW 7 7 1016.3 - 0.2 - - 10 - - - -
23/06:00am 4.3 NW 5 7 1016.2 - 0.2 - Mostly cloudy 10 - - - -

Other Formats:

Comma delimited format used in spreadsheet applications
http://www.bom.gov.au/fwo/IDS60701/IDS60701.95661.axf

JavaScript Object Notation format (JSON) in row-major order
http://www.bom.gov.au/fwo/IDS60701/IDS60701.95661.json